createdAt,value
2022-08-07T16:34:05.966Z,42.49
2022-08-07T16:38:05.572Z,43.08
2022-08-07T16:41:41.668Z,42.65
2022-08-07T16:46:47.319Z,42.43
2022-08-07T16:49:03.933Z,42.98
2022-08-07T16:52:50.975Z,42.59
2022-08-07T16:56:00.180Z,42.87
2022-08-07T16:59:15.261Z,43.32
2022-08-07T17:02:10.484Z,43.25
2022-08-07T17:06:01.577Z,43.26
2022-08-07T17:09:10.448Z,43.27
2022-08-07T17:12:33.913Z,43.30
2022-08-07T17:15:58.341Z,42.95
2022-08-07T17:18:57.154Z,42.97
2022-08-07T17:21:55.080Z,43.28
2022-08-07T17:25:08.303Z,43.63
2022-08-07T17:28:24.873Z,43.58
2022-08-07T17:31:44.413Z,44.44
2022-08-07T17:35:40.465Z,44.31
2022-08-07T17:38:33.023Z,44.07
2022-08-07T17:42:02.257Z,45.19
2022-08-07T17:44:59.444Z,45.11
2022-08-07T17:47:46.203Z,45.23
2022-08-07T17:51:05.637Z,45.74
2022-08-07T17:54:01.729Z,45.58
2022-08-07T18:01:36.604Z,46.77
2022-08-07T18:08:24.431Z,48.71
2022-08-07T18:12:17.811Z,49.04
2022-08-07T18:15:53.619Z,50.43
2022-08-07T18:21:03.599Z,50.88
2022-08-07T18:22:54.616Z,51.15
2022-08-07T18:30:08.344Z,52.09
2022-08-07T18:33:15.492Z,53.17
2022-08-07T18:36:05.989Z,52.68
2022-08-07T18:40:05.067Z,53.91
2022-08-07T18:42:43.378Z,54.86
2022-08-07T18:46:29.192Z,55.13
2022-08-07T18:50:30.475Z,56.22
2022-08-07T18:52:56.750Z,56.31
2022-08-07T18:55:57.669Z,56.47
2022-08-07T18:58:58.364Z,56.81
2022-08-07T19:02:18.671Z,56.98
2022-08-07T19:05:14.897Z,57.38
2022-08-07T19:08:07.824Z,58.40
2022-08-07T19:11:01.069Z,58.66
2022-08-07T19:14:23.737Z,59.32
2022-08-07T19:17:07.956Z,59.70
2022-08-07T19:20:29.798Z,60.38
2022-08-07T19:23:18.729Z,60.82
2022-08-07T19:26:24.008Z,61.23
2022-08-07T19:31:05.415Z,62.08
2022-08-07T19:32:17.393Z,62.14
2022-08-07T19:35:06.778Z,62.39
2022-08-07T19:37:57.323Z,62.42
2022-08-07T19:40:49.711Z,62.85
2022-08-07T19:43:49.291Z,63.59
2022-08-07T19:46:37.086Z,64.25
2022-08-07T19:49:18.941Z,64.38
2022-08-07T19:52:36.611Z,64.28
2022-08-07T19:55:20.424Z,64.34
2022-08-07T19:58:12.818Z,64.83
2022-08-07T20:00:55.590Z,65.31
2022-08-07T20:03:46.806Z,65.07
2022-08-07T20:06:31.086Z,65.67
2022-08-07T20:10:35.427Z,65.91
2022-08-07T20:12:34.503Z,66.33
2022-08-07T20:15:23.824Z,66.07
2022-08-07T20:18:32.650Z,66.86
2022-08-07T20:21:22.441Z,67.33
2022-08-07T20:24:01.586Z,67.57
2022-08-07T20:26:52.188Z,68.16
2022-08-07T20:29:48.855Z,68.31
2022-08-07T20:32:47.939Z,68.32
2022-08-07T20:35:34.875Z,68.23
2022-08-07T20:39:00.325Z,68.24
2022-08-07T20:41:40.717Z,68.46
2022-08-07T20:44:13.067Z,68.89
2022-08-07T20:47:04.225Z,68.61
2022-08-07T20:50:30.784Z,69.20
2022-08-07T20:53:14.765Z,69.02
2022-08-07T20:56:02.032Z,68.90
2022-08-07T20:58:59.263Z,69.30
2022-08-07T21:01:55.457Z,69.37
2022-08-07T21:04:58.237Z,69.61
2022-08-07T21:08:01.153Z,70.12
2022-08-07T21:10:44.794Z,70.51
2022-08-07T21:13:24.576Z,70.74
2022-08-07T21:16:25.558Z,70.90
2022-08-07T21:19:23.926Z,70.94
2022-08-07T21:22:28.198Z,71.44
2022-08-07T21:25:39.008Z,71.54
2022-08-07T21:29:02.300Z,71.77
2022-08-07T21:32:43.928Z,71.85
2022-08-07T21:36:05.023Z,71.97
2022-08-07T21:39:45.842Z,72.25
2022-08-07T21:42:32.091Z,72.53
2022-08-07T21:46:08.776Z,72.50
2022-08-07T21:48:27.944Z,72.95
2022-08-07T21:51:51.380Z,73.31
2022-08-07T21:54:43.360Z,73.07
2022-08-07T21:57:44.749Z,73.19
2022-08-07T22:00:22.723Z,73.40
2022-08-07T22:03:30.906Z,73.57
2022-08-07T22:06:35.753Z,73.66
2022-08-07T22:09:26.433Z,73.77
2022-08-07T22:12:24.717Z,73.69
2022-08-07T22:16:45.174Z,73.52
2022-08-07T22:18:35.713Z,74.23
2022-08-07T22:22:02.589Z,74.41
2022-08-07T22:25:10.841Z,74.57
2022-08-07T22:28:31.270Z,74.32
2022-08-07T22:31:58.915Z,74.53
2022-08-07T22:34:49.745Z,74.95
2022-08-07T22:38:12.896Z,75.24
2022-08-07T22:41:07.653Z,75.33
2022-08-07T22:43:56.078Z,75.70
2022-08-07T22:47:02.191Z,75.99
2022-08-07T22:49:56.889Z,76.01
2022-08-07T22:53:02.958Z,76.06
2022-08-07T22:56:08.537Z,76.47
2022-08-07T22:59:26.247Z,76.43
2022-08-07T23:02:16.635Z,76.81
2022-08-07T23:06:08.221Z,77.10
2022-08-07T23:08:24.454Z,77.65
2022-08-07T23:11:46.585Z,77.87
2022-08-07T23:14:38.101Z,77.65
2022-08-07T23:17:31.787Z,77.63
2022-08-07T23:20:40.735Z,77.82
2022-08-07T23:24:05.087Z,78.53
2022-08-07T23:27:08.278Z,78.68
2022-08-07T23:30:38.576Z,79.16
2022-08-07T23:34:33.727Z,79.58
2022-08-07T23:37:22.267Z,79.57
2022-08-07T23:40:17.415Z,79.60
2022-08-07T23:43:23.057Z,79.81
2022-08-07T23:46:14.171Z,79.89
2022-08-07T23:49:15.812Z,80.17
2022-08-07T23:53:08.780Z,80.11
2022-08-07T23:55:51.880Z,80.34
2022-08-07T23:58:37.214Z,80.51
